aviador You're here:

YCIN Decoded Metar

CURTIN/DERBY in _UNIDENTIFIED
Report Time2017-08-19 11:00:00
UTC Time2017-08-19 11:14:00
Flight Rules vfr VFR
Wind340° at 04 kt
W.Decomp.*RWY 29: 2.7 kt HW 3.0 kt RCW
W.Rank340° ranks 13
Current wind is below 340° avg. (5.7)
Visibility9999 m
Phenomena:N/A
Clouds:N/A
Expected CloudBase > 7,200 ft AGL from Temp-Dew spread
CeilingNone
Temp27°C (ISA +13)
Dew Point09°C (32% RH)
Heat Index26.5°C
AAT25.3°C
QNH1011 hPa
Density Alt1,975 ft
Elevation299 ft
Report Wrong Elevation
Raw Report
METAR YCIN 191100Z AUTO 34004KT 9999 // NCD 27/09 Q1011=

Extra information for YCIN:More info

Metar Taf Metar & Taf Last 4 Metars F.Rules Stats Wind Profile Meteogram Temp Stats Airport Information Weather charts Add Link Nearby VenuesMetar ALERT Operation Metar Decoded Social comments